createdAt,value
2023-04-15T00:01:10.085Z,7.75
2023-04-15T00:03:37.038Z,7.82
2023-04-15T00:06:04.238Z,7.83
2023-04-15T00:08:32.654Z,7.72
2023-04-15T00:11:05.867Z,7.78
2023-04-15T00:13:36.017Z,7.77
2023-04-15T00:16:03.135Z,7.84
2023-04-15T00:18:45.863Z,7.81
2023-04-15T00:21:26.498Z,7.75
2023-04-15T00:23:53.937Z,7.73
2023-04-15T00:26:23.532Z,7.63
2023-04-15T00:28:53.133Z,7.72
2023-04-15T00:31:24.986Z,7.67
2023-04-15T00:34:17.339Z,7.65
2023-04-15T00:37:13.627Z,7.70
2023-04-15T00:39:40.936Z,7.71
2023-04-15T00:42:13.414Z,7.61
2023-04-15T00:44:43.304Z,7.61
2023-04-15T00:47:12.414Z,7.80
2023-04-15T00:49:39.104Z,7.73
2023-04-15T00:52:06.242Z,7.82
2023-04-15T00:54:33.047Z,7.72
2023-04-15T00:57:07.285Z,7.72
2023-04-15T00:59:59.774Z,7.60
2023-04-15T01:02:27.606Z,7.58
2023-04-15T01:04:58.925Z,7.51
2023-04-15T01:07:29.018Z,7.61
2023-04-15T01:10:03.982Z,7.48
2023-04-15T01:12:41.014Z,7.59
2023-04-15T01:15:22.181Z,7.47
2023-04-15T01:17:49.240Z,7.39
2023-04-15T01:20:25.337Z,7.45
2023-04-15T01:22:52.995Z,7.44
2023-04-15T01:25:35.166Z,7.41
2023-04-15T01:28:22.330Z,7.67
2023-04-15T01:30:51.362Z,7.58
2023-04-15T01:33:18.149Z,7.46
2023-04-15T01:35:45.220Z,7.53
2023-04-15T01:38:14.455Z,7.44
2023-04-15T01:40:41.049Z,7.55
2023-04-15T01:43:07.776Z,7.46
2023-04-15T01:45:34.524Z,7.55
2023-04-15T01:48:01.728Z,7.61
2023-04-15T01:50:37.071Z,7.57
2023-04-15T01:53:06.201Z,7.50
2023-04-15T01:55:35.823Z,7.43
2023-04-15T01:58:02.758Z,7.72
2023-04-15T02:00:30.169Z,7.50
2023-04-15T02:02:57.145Z,7.46
2023-04-15T02:05:25.697Z,7.56
2023-04-15T02:07:52.721Z,7.55
2023-04-15T02:10:27.392Z,7.45
2023-04-15T02:12:56.791Z,7.56
2023-04-15T02:15:23.440Z,7.59
2023-04-15T02:17:52.900Z,7.52
2023-04-15T02:20:21.535Z,7.67
2023-04-15T02:22:48.640Z,7.44
2023-04-15T02:25:17.084Z,7.42
2023-04-15T02:27:46.486Z,7.58
2023-04-15T02:30:13.627Z,7.58
2023-04-15T02:32:41.069Z,7.62
2023-04-15T02:35:09.052Z,7.43
2023-04-15T02:37:40.811Z,7.58
2023-04-15T02:40:11.978Z,7.61
2023-04-15T02:42:44.128Z,7.62
2023-04-15T02:45:12.930Z,7.43
2023-04-15T02:47:43.335Z,7.55
2023-04-15T02:50:13.488Z,7.42
2023-04-15T02:52:42.094Z,7.43
2023-04-15T02:55:09.718Z,7.51
2023-04-15T02:57:40.844Z,7.54
2023-04-15T03:00:10.213Z,7.58
2023-04-15T03:02:40.202Z,7.57
2023-04-15T03:05:07.818Z,7.45
2023-04-15T03:07:35.702Z,7.33
2023-04-15T03:10:02.705Z,7.38
2023-04-15T03:12:30.502Z,7.45
2023-04-15T03:14:57.205Z,7.43
2023-04-15T03:17:23.944Z,7.43
2023-04-15T03:19:53.635Z,7.51
2023-04-15T03:22:20.581Z,7.40
2023-04-15T03:24:55.053Z,7.27
2023-04-15T03:27:21.697Z,7.43
2023-04-15T03:29:51.747Z,7.35
2023-04-15T03:32:22.859Z,7.25
2023-04-15T03:34:55.396Z,7.31
2023-04-15T03:37:22.424Z,7.31
2023-04-15T03:39:53.309Z,7.30
2023-04-15T03:42:20.456Z,7.35
2023-04-15T03:44:51.304Z,7.41
2023-04-15T03:47:18.242Z,7.16
2023-04-15T03:49:47.836Z,7.05
2023-04-15T03:52:17.030Z,7.10
2023-04-15T03:54:56.233Z,7.18
2023-04-15T03:57:24.367Z,7.34
2023-04-15T04:00:02.569Z,7.17
2023-04-15T04:02:36.936Z,7.17
2023-04-15T04:05:12.695Z,7.30
2023-04-15T04:07:57.251Z,7.08
2023-04-15T04:10:27.164Z,7.36
2023-04-15T04:12:59.876Z,7.41
2023-04-15T04:15:28.999Z,7.33
2023-04-15T04:17:58.331Z,7.34
2023-04-15T04:20:26.158Z,7.25
2023-04-15T04:23:02.861Z,7.21
2023-04-15T04:25:29.817Z,7.35
2023-04-15T04:28:02.308Z,7.43
2023-04-15T04:30:31.805Z,7.27
2023-04-15T04:33:02.573Z,7.06
2023-04-15T04:35:30.716Z,7.35
2023-04-15T04:38:01.103Z,7.16
2023-04-15T04:40:33.863Z,7.22
2023-04-15T04:43:01.222Z,7.16
2023-04-15T04:45:30.603Z,7.33
2023-04-15T04:47:57.745Z,7.21
2023-04-15T04:50:24.471Z,7.06
2023-04-15T04:55:56.753Z,7.25
2023-04-15T04:58:37.707Z,7.54
2023-04-15T05:01:04.727Z,7.56
2023-04-15T05:03:33.952Z,7.41
2023-04-15T05:06:06.174Z,7.42
2023-04-15T05:08:35.041Z,7.44
2023-04-15T05:11:08.267Z,7.45
2023-04-15T05:13:43.557Z,7.33
2023-04-15T05:16:10.378Z,7.37
2023-04-15T05:18:42.263Z,7.50
2023-04-15T05:21:09.099Z,7.51
2023-04-15T05:23:38.038Z,7.46
2023-04-15T05:26:04.888Z,7.42
2023-04-15T05:28:31.512Z,7.54
2023-04-15T05:30:58.381Z,7.46
2023-04-15T05:33:27.692Z,7.45
2023-04-15T05:35:54.242Z,7.47
2023-04-15T05:41:09.681Z,7.49
2023-04-15T05:43:40.441Z,7.53
2023-04-15T05:46:18.141Z,7.69
2023-04-15T05:48:46.118Z,7.74
2023-04-15T05:51:27.102Z,7.61
2023-04-15T05:53:53.784Z,7.63
2023-04-15T05:56:23.135Z,7.61
2023-04-15T05:59:07.515Z,7.59
2023-04-15T06:01:34.465Z,7.64
2023-04-15T06:04:09.862Z,7.62
2023-04-15T06:06:41.332Z,7.76
2023-04-15T06:09:08.006Z,7.65
2023-04-15T06:11:37.318Z,7.68
2023-04-15T06:14:11.511Z,7.75
2023-04-15T06:16:51.938Z,7.73
2023-04-15T06:19:26.303Z,7.61
2023-04-15T06:22:30.817Z,7.75
2023-04-15T06:27:47.406Z,7.54
2023-04-15T06:30:25.360Z,7.66
2023-04-15T06:32:52.907Z,7.67
2023-04-15T06:35:20.044Z,7.82
2023-04-15T06:37:52.019Z,7.90
2023-04-15T06:40:18.688Z,7.89
2023-04-15T06:42:45.777Z,7.82
2023-04-15T06:45:15.317Z,7.90
2023-04-15T06:47:44.415Z,7.74
2023-04-15T06:50:13.545Z,7.70
2023-04-15T06:52:50.847Z,7.87
2023-04-15T06:55:32.183Z,7.84
2023-04-15T06:58:25.491Z,7.79
2023-04-15T07:00:55.849Z,7.73
2023-04-15T07:03:22.617Z,7.74
2023-04-15T07:05:53.466Z,7.92
2023-04-15T07:08:50.381Z,7.77
2023-04-15T07:11:52.512Z,7.81
2023-04-15T07:14:26.629Z,7.94
2023-04-15T07:17:12.689Z,7.89
2023-04-15T07:19:50.430Z,7.84
2023-04-15T07:22:20.393Z,7.87
2023-04-15T07:24:58.181Z,8.23
2023-04-15T07:27:25.154Z,8.07
2023-04-15T07:29:52.834Z,8.13
2023-04-15T07:32:21.461Z,8.15
2023-04-15T07:35:42.421Z,8.27
2023-04-15T07:38:07.247Z,8.02
2023-04-15T07:40:34.373Z,8.18
2023-04-15T07:43:42.045Z,8.14
2023-04-15T07:46:24.819Z,8.08
2023-04-15T07:48:52.635Z,8.22
2023-04-15T07:51:25.695Z,8.14
2023-04-15T07:53:53.013Z,8.25
2023-04-15T07:56:22.373Z,8.42
2023-04-15T07:59:19.010Z,8.50
2023-04-15T08:02:07.210Z,8.56
2023-04-15T08:04:35.882Z,8.77
2023-04-15T08:07:29.178Z,8.80
2023-04-15T08:09:58.762Z,8.90
2023-04-15T08:12:38.700Z,9.03
2023-04-15T08:15:21.091Z,9.03
2023-04-15T08:18:05.263Z,8.97
2023-04-15T08:20:36.443Z,9.14
2023-04-15T08:23:04.693Z,9.02
2023-04-15T08:25:45.463Z,9.12
2023-04-15T08:28:12.236Z,9.09
2023-04-15T08:30:41.156Z,9.14
2023-04-15T08:33:12.633Z,9.14
2023-04-15T08:35:44.802Z,9.31
2023-04-15T08:38:38.635Z,9.40
2023-04-15T08:42:10.392Z,9.22
2023-04-15T08:44:48.888Z,9.34
2023-04-15T08:50:53.576Z,9.47
2023-04-15T09:04:23.975Z,9.58
2023-04-15T10:32:18.628Z,11.44
2023-04-15T11:06:47.741Z,11.67
2023-04-15T11:26:49.644Z,11.32
2023-04-15T11:30:39.444Z,11.32
2023-04-15T11:33:56.617Z,11.39
2023-04-15T11:37:30.675Z,12.15
2023-04-15T11:44:22.028Z,12.43
2023-04-15T11:47:02.702Z,12.28
2023-04-15T11:53:23.136Z,12.30
2023-04-15T12:00:05.699Z,12.33
2023-04-15T12:50:16.706Z,14.93
2023-04-15T14:34:56.076Z,17.44
2023-04-15T14:43:04.274Z,17.72
2023-04-15T15:03:23.634Z,18.07
2023-04-15T15:23:37.490Z,18.53
2023-04-15T15:26:42.335Z,18.57
2023-04-15T15:29:27.942Z,18.69
2023-04-15T15:32:08.194Z,18.91
2023-04-15T15:35:03.975Z,18.92
2023-04-15T15:38:12.018Z,18.94
2023-04-15T15:44:44.550Z,18.94
2023-04-15T15:47:57.780Z,19.02
2023-04-15T15:50:43.855Z,19.28
2023-04-15T15:53:28.225Z,18.56
2023-04-15T15:56:21.217Z,18.14
2023-04-15T15:58:59.680Z,18.00
2023-04-15T16:05:27.299Z,18.38
2023-04-15T16:08:05.558Z,18.79
2023-04-15T16:36:41.839Z,19.37
2023-04-15T16:39:12.247Z,19.09
2023-04-15T16:41:41.701Z,18.81
2023-04-15T16:44:13.550Z,18.76
2023-04-15T16:46:57.302Z,18.99
2023-04-15T16:49:50.590Z,18.77
2023-04-15T16:52:39.269Z,18.59
2023-04-15T16:58:18.602Z,18.58
2023-04-15T17:00:50.310Z,18.57
2023-04-15T17:03:20.169Z,18.58
2023-04-15T17:05:51.925Z,18.42
2023-04-15T17:08:40.469Z,18.37
2023-04-15T17:11:07.396Z,18.20
2023-04-15T17:13:58.584Z,18.10
2023-04-15T17:16:28.124Z,17.99
2023-04-15T17:18:57.679Z,18.03
2023-04-15T17:21:25.988Z,17.82
2023-04-15T17:23:58.896Z,18.04
2023-04-15T17:26:25.603Z,17.59
2023-04-15T17:28:54.862Z,17.91
2023-04-15T17:31:32.884Z,17.88
2023-04-15T17:34:13.956Z,17.34
2023-04-15T17:36:51.606Z,17.33
2023-04-15T17:39:41.603Z,17.42
2023-04-15T17:42:15.878Z,17.14
2023-04-15T17:44:45.595Z,16.91
2023-04-15T17:47:14.867Z,16.59
2023-04-15T17:49:41.639Z,16.72
2023-04-15T17:55:23.057Z,16.35
2023-04-15T17:57:56.953Z,15.96
2023-04-15T18:00:26.735Z,16.25
2023-04-15T18:02:57.610Z,16.26
2023-04-15T18:05:24.590Z,16.02
2023-04-15T18:07:53.106Z,15.68
2023-04-15T18:10:20.850Z,15.92
2023-04-15T18:12:50.528Z,15.63
2023-04-15T18:15:23.298Z,15.50
2023-04-15T18:17:50.086Z,15.49
2023-04-15T18:20:16.948Z,14.98
2023-04-15T18:22:44.461Z,15.28
2023-04-15T18:25:11.372Z,14.89
2023-04-15T18:27:41.272Z,14.94
2023-04-15T18:30:14.278Z,15.00
2023-04-15T18:32:55.404Z,14.75
2023-04-15T18:35:22.791Z,14.69
2023-04-15T18:37:49.577Z,14.36
2023-04-15T18:40:19.220Z,14.58
2023-04-15T18:46:12.433Z,14.42
2023-04-15T18:48:39.594Z,14.67
2023-04-15T18:51:06.202Z,14.10
2023-04-15T18:53:38.133Z,14.27
2023-04-15T18:56:05.251Z,14.03
2023-04-15T18:59:18.254Z,14.11
2023-04-15T19:01:27.080Z,14.23
2023-04-15T19:04:09.300Z,13.77
2023-04-15T19:06:50.863Z,13.86
2023-04-15T19:09:17.985Z,13.66
2023-04-15T19:11:44.756Z,13.85
2023-04-15T19:14:11.788Z,13.80
2023-04-15T19:16:48.613Z,13.68
2023-04-15T19:19:16.976Z,13.64
2023-04-15T19:21:49.921Z,13.47
2023-04-15T19:24:21.843Z,13.42
2023-04-15T19:27:06.535Z,13.88
2023-04-15T19:30:19.799Z,13.58
2023-04-15T19:33:11.148Z,13.77
2023-04-15T19:36:01.817Z,13.09
2023-04-15T19:39:21.215Z,13.65
2023-04-15T19:42:21.463Z,13.19
2023-04-15T19:45:06.513Z,13.36
2023-04-15T19:47:45.728Z,13.13
2023-04-15T19:50:17.046Z,13.04
2023-04-15T19:52:43.908Z,13.27
2023-04-15T19:55:13.271Z,13.43
2023-04-15T19:57:39.920Z,13.01
2023-04-15T20:00:08.595Z,13.15
2023-04-15T20:02:38.492Z,13.23
2023-04-15T20:05:09.821Z,13.14
2023-04-15T20:07:36.792Z,12.89
2023-04-15T20:10:09.641Z,13.15
2023-04-15T20:12:51.164Z,12.80
2023-04-15T20:15:23.871Z,12.62
2023-04-15T20:17:50.985Z,12.78
2023-04-15T20:20:24.228Z,12.76
2023-04-15T20:22:53.203Z,12.78
2023-04-15T20:25:20.191Z,12.53
2023-04-15T20:27:47.372Z,12.46
2023-04-15T20:30:15.625Z,12.47
2023-04-15T20:32:55.371Z,12.10
2023-04-15T20:35:22.424Z,12.54
2023-04-15T20:37:49.515Z,12.27
2023-04-15T20:40:16.644Z,12.44
2023-04-15T20:42:58.151Z,11.86
2023-04-15T20:45:54.007Z,12.05
2023-04-15T20:48:24.102Z,11.75
2023-04-15T20:50:59.526Z,11.64
2023-04-15T20:53:27.684Z,11.70
2023-04-15T20:55:59.689Z,12.10
2023-04-15T20:58:27.603Z,11.94
2023-04-15T21:00:58.844Z,11.75
2023-04-15T21:06:08.279Z,11.37
2023-04-15T21:08:37.153Z,11.46
2023-04-15T21:11:03.855Z,11.58
2023-04-15T21:13:30.513Z,11.35
2023-04-15T21:18:40.310Z,10.84
2023-04-15T21:21:10.101Z,11.05
2023-04-15T21:23:48.899Z,11.20
2023-04-15T21:26:18.724Z,11.10
2023-04-15T21:28:55.764Z,10.69
2023-04-15T21:31:25.134Z,10.87
2023-04-15T21:34:02.562Z,10.93
2023-04-15T21:36:51.455Z,10.93
2023-04-15T21:39:21.132Z,10.60
2023-04-15T21:41:50.017Z,10.39
2023-04-15T21:44:19.733Z,10.35
2023-04-15T21:47:09.997Z,10.22
2023-04-15T21:49:49.362Z,10.16
2023-04-15T21:52:28.604Z,10.21
2023-04-15T21:54:56.255Z,10.30
2023-04-15T21:57:54.987Z,10.11
2023-04-15T22:00:34.945Z,10.12
2023-04-15T22:04:32.710Z,10.42
2023-04-15T22:07:20.432Z,10.34
2023-04-15T22:10:10.897Z,9.98
2023-04-15T22:12:37.955Z,9.90
2023-04-15T22:15:07.806Z,9.89
2023-04-15T22:17:34.390Z,9.95
2023-04-15T22:20:04.006Z,9.83
2023-04-15T22:22:43.538Z,9.73
2023-04-15T22:25:11.231Z,9.69
2023-04-15T22:27:40.350Z,9.77
2023-04-15T22:30:07.629Z,9.76
2023-04-15T22:32:34.788Z,9.67
2023-04-15T22:35:02.012Z,9.72
2023-04-15T22:37:31.675Z,9.51
2023-04-15T22:39:58.787Z,9.51
2023-04-15T22:42:25.705Z,9.62
2023-04-15T22:44:52.293Z,9.44
2023-04-15T22:47:19.709Z,9.46
2023-04-15T22:49:46.513Z,9.57
2023-04-15T22:52:27.492Z,9.58
2023-04-15T22:55:00.438Z,9.54
2023-04-15T22:57:28.327Z,9.40
2023-04-15T22:59:55.364Z,9.63
2023-04-15T23:02:22.170Z,9.38
2023-04-15T23:04:49.314Z,9.57
2023-04-15T23:07:16.325Z,9.10
2023-04-15T23:09:43.454Z,9.46
2023-04-15T23:12:10.514Z,9.15
2023-04-15T23:14:37.200Z,9.40
2023-04-15T23:17:04.273Z,9.48
2023-04-15T23:19:31.233Z,9.32
2023-04-15T23:21:58.033Z,9.08
2023-04-15T23:24:24.636Z,9.06
2023-04-15T23:26:53.321Z,9.22
2023-04-15T23:29:20.223Z,9.18
2023-04-15T23:31:48.836Z,9.12
2023-04-15T23:34:15.676Z,9.11
2023-04-15T23:36:42.275Z,9.27
2023-04-15T23:39:09.156Z,9.09
2023-04-15T23:41:36.752Z,8.99
2023-04-15T23:44:03.703Z,9.04
2023-04-15T23:46:30.543Z,9.21
2023-04-15T23:48:57.361Z,9.25
2023-04-15T23:51:29.503Z,8.77
2023-04-15T23:53:56.171Z,9.11
2023-04-15T23:56:22.755Z,9.28
2023-04-15T23:58:49.370Z,9.17
